Terminal Aerodrome Forecast
Issued by NWS

Home | Current Version | Previous Version | Text Only | Print | Product List | Glossary On
Versions: 1 2 3 4 5 6 7 8 9 10 11 12 13 14 15 16 17 18
000
FTUS43 KMKX 272320
TAFENW
TAF
KENW 272320Z 2800/2824 06010KT P6SM SKC
     FM280200 VRB03KT P6SM SCT050
     FM281000 05004KT 5SM BR BKN090
     FM281400 05006KT P6SM OVC060
     FM282100 03010KT P6SM BKN130=

USA.gov is the U.S. government's official web portal to all federal, state and local government web resources and services.